Last 6 Hours

AM-Scott Top 8120'

15 Minute Data | America/Los_Angeles
as of 5/7/26 6:32 AM PDT
Date & Time Temp (°F) RH (%) Dew Pt (°F) Wet Bulb (°F) Wind Dir (°) Wind Spd (mph) Wind Gust (mph) WindChill (°F) Daily Min Temp (°F) Daily Max Temp (°F)
5/7/26 - 0630 49.8 49 31.4 40.6 NNE | 31 1.9 4.3 49.8 48.8 52.3
5/7/26 - 0615 49.1 51 31.7 40.4 ENE | 76 1.3 5.4 49.1 48.8 52.3
5/7/26 - 0600 49.1 52 32.0 40.6 E | 82 2.5 6.3 49.1 49.0 52.3
5/7/26 - 0545 49.7 51 32.2 40.9 NE | 54 2.6 7.5 48.9 49.0 52.3
5/7/26 - 0530 49.9 52 32.8 41.3 ENE | 63 4.1 7.1 49.9 49.2 52.3
5/7/26 - 0515 49.8 53 33.2 41.4 E | 100 2.5 5.3 49.8 49.2 52.3
5/7/26 - 0500 50.1 53 33.6 41.6 ENE | 77 3.8 6.3 50.1 49.2 52.3
5/7/26 - 0445 50.7 52 33.7 42.0 NE | 47 6.0 9.6 47.6 49.2 52.3
5/7/26 - 0430 50.7 55 35.1 42.6 NNE | 23 5.3 8.4 48.4 49.2 52.3
5/7/26 - 0415 50.0 59 36.2 42.8 NNE | 18 4.3 7.1 48.4 49.2 52.3
5/7/26 - 0400 49.4 61 36.5 42.6 NNE | 19 4.1 6.5 48.3 49.3 52.3
5/7/26 - 0345 49.4 61 36.6 42.6 NNE | 18 3.0 6.1 48.7 49.4 52.3
5/7/26 - 0330 50.1 60 36.7 43.0 N | 9 3.4 5.6 49.2 50.0 52.3
5/7/26 - 0315 50.5 60 37.0 43.3 N | 356 3.7 6.8 49.5 50.0 52.3
5/7/26 - 0300 50.7 59 36.9 43.4 N | 357 4.8 7.1 50.7 50.0 52.3
5/7/26 - 0245 50.9 59 36.9 43.4 N | 2 4.8 8.4 49.0 50.0 52.3
5/7/26 - 0230 51.3 59 37.6 44.0 N | 0 5.1 8.4 49.0 50.0 52.3
5/7/26 - 0215 51.8 58 37.7 44.2 N | 358 3.8 6.4 51.8 50.0 52.3
5/7/26 - 0200 52.1 57 37.3 44.2 NNW | 341 2.7 3.7 52.1 50.0 52.1
5/7/26 - 0145 52.0 59 38.1 44.5 NNW | 337 2.2 2.7 52.0 50.0 52.1
5/7/26 - 0130 51.4 62 38.6 44.5 N | 1 1.2 2.0 51.4 50.0 52.1
5/7/26 - 0115 51.3 62 38.6 44.4 N | 8 1.1 1.5 51.3 50.0 52.1
5/7/26 - 0100 50.9 64 39.3 44.5 N | 0 0.0 0.0 50.9 50.0 52.1
5/7/26 - 0045 50.8 63 38.7 44.3 SSW | 196 0.5 1.6 50.8 50.8 52.1
Max 52.1 64 39.3 44.5 - 6.0 9.6 52.1 50.8 52.3
Avg 50.5 57 35.8 42.8 - 3.1 5.6 49.8 - -
Min 49.1 49 31.4 40.4 - 0.0 0.0 47.6 48.8 52.1